createdAt,value
2024-01-06T00:01:42.349Z,31.63
2024-01-06T00:04:15.316Z,25.90
2024-01-06T00:06:48.262Z,25.10
2024-01-06T00:09:21.412Z,27.55
2024-01-06T00:11:54.327Z,23.08
2024-01-06T00:14:27.150Z,26.45
2024-01-06T00:17:01.470Z,23.58
2024-01-06T00:19:34.569Z,25.75
2024-01-06T00:22:07.467Z,26.35
2024-01-06T00:24:40.348Z,23.70
2024-01-06T00:27:14.628Z,25.80
2024-01-06T00:29:48.566Z,26.48
2024-01-06T00:32:22.790Z,25.23
2024-01-06T00:34:56.278Z,25.85
2024-01-06T00:37:29.534Z,23.08
2024-01-06T00:40:03.655Z,27.40
2024-01-06T00:42:36.594Z,26.45
2024-01-06T00:45:10.449Z,23.77
2024-01-06T00:47:44.737Z,22.27
2024-01-06T00:50:18.068Z,21.92
2024-01-06T00:52:53.481Z,26.75
2024-01-06T00:55:26.872Z,24.08
2024-01-06T00:57:59.721Z,20.58
2024-01-06T01:00:32.793Z,22.77
2024-01-06T01:03:07.141Z,23.47
2024-01-06T01:05:39.103Z,21.73
2024-01-06T01:08:12.050Z,24.50
2024-01-06T01:10:46.103Z,28.52
2024-01-06T01:13:19.051Z,26.00
2024-01-06T01:15:51.945Z,22.77
2024-01-06T01:18:26.420Z,22.52
2024-01-06T01:20:59.443Z,24.05
2024-01-06T01:23:32.313Z,23.33
2024-01-06T01:26:05.415Z,18.35
2024-01-06T01:28:38.382Z,22.58
2024-01-06T01:31:11.571Z,21.17
2024-01-06T01:33:46.072Z,25.40
2024-01-06T01:36:19.923Z,17.80
2024-01-06T01:38:52.823Z,18.85
2024-01-06T01:41:26.700Z,23.00
2024-01-06T01:44:00.248Z,21.73
2024-01-06T01:46:33.577Z,20.20
2024-01-06T01:49:08.547Z,25.30
2024-01-06T01:51:41.597Z,24.45
2024-01-06T01:54:14.669Z,21.90
2024-01-06T01:56:47.716Z,19.80
2024-01-06T01:59:21.089Z,19.77
2024-01-06T02:01:54.037Z,23.95
2024-01-06T02:04:28.282Z,21.02
2024-01-06T02:07:01.177Z,21.80
2024-01-06T02:09:34.296Z,19.95
2024-01-06T02:12:07.804Z,18.88
2024-01-06T02:14:40.680Z,21.05
2024-01-06T02:17:13.525Z,22.80
2024-01-06T02:19:47.931Z,19.55
2024-01-06T02:22:21.374Z,25.00
2024-01-06T02:24:54.523Z,21.80
2024-01-06T02:27:27.615Z,24.17
2024-01-06T02:30:00.611Z,19.70
2024-01-06T02:32:33.501Z,25.20
2024-01-06T02:35:06.806Z,23.05
2024-01-06T02:37:41.039Z,19.63
2024-01-06T02:40:15.386Z,20.92
2024-01-06T02:42:48.524Z,21.52
2024-01-06T02:45:21.541Z,19.58
2024-01-06T02:47:54.510Z,20.90
2024-01-06T02:50:27.450Z,20.37
2024-01-06T02:53:01.718Z,21.27
2024-01-06T02:55:34.611Z,20.35
2024-01-06T02:58:07.572Z,21.23
2024-01-06T03:00:40.455Z,24.92
2024-01-06T03:03:13.424Z,28.50
2024-01-06T03:05:48.339Z,24.42
2024-01-06T03:08:23.842Z,24.48
2024-01-06T03:10:56.932Z,25.67
2024-01-06T03:13:29.925Z,25.03
2024-01-06T03:16:06.306Z,23.90
2024-01-06T03:18:39.488Z,26.52
2024-01-06T03:21:20.079Z,24.30
2024-01-06T03:23:56.403Z,27.65
2024-01-06T03:26:29.266Z,25.15
2024-01-06T03:29:03.750Z,23.85
2024-01-06T03:31:36.930Z,22.73
2024-01-06T03:34:10.201Z,24.00
2024-01-06T03:36:43.284Z,31.50
2024-01-06T03:39:17.745Z,28.85
2024-01-06T03:41:50.877Z,24.15
2024-01-06T03:44:23.740Z,29.00
2024-01-06T03:46:56.699Z,22.75
2024-01-06T03:49:29.789Z,22.60
2024-01-06T03:52:02.774Z,30.13
2024-01-06T03:54:37.148Z,27.77
2024-01-06T03:57:10.119Z,31.20
2024-01-06T03:59:43.816Z,33.65
2024-01-06T04:02:16.739Z,28.88
2024-01-06T04:04:49.674Z,28.65
2024-01-06T04:07:22.582Z,22.33
2024-01-06T04:09:56.824Z,25.98
2024-01-06T04:12:29.891Z,24.42
2024-01-06T04:15:02.760Z,23.08
2024-01-06T04:17:35.883Z,24.10
2024-01-06T04:20:09.362Z,26.48
2024-01-06T04:22:42.409Z,23.10
2024-01-06T04:25:16.868Z,25.98
2024-01-06T04:27:50.049Z,23.30
2024-01-06T04:30:23.252Z,22.55
2024-01-06T04:32:57.655Z,26.45
2024-01-06T04:35:30.614Z,25.75
2024-01-06T04:38:03.506Z,21.80
2024-01-06T04:40:37.839Z,25.55
2024-01-06T04:43:11.027Z,25.20
2024-01-06T04:45:43.953Z,25.38
2024-01-06T04:48:17.036Z,28.05
2024-01-06T04:50:50.131Z,27.75
2024-01-06T04:53:23.093Z,23.42
2024-01-06T04:55:57.326Z,25.50
2024-01-06T04:58:30.224Z,25.48
2024-01-06T05:01:03.499Z,22.73
2024-01-06T05:03:36.777Z,22.23
2024-01-06T05:06:09.804Z,23.42
2024-01-06T05:08:45.867Z,21.70
2024-01-06T05:11:20.419Z,29.83
2024-01-06T05:13:53.350Z,33.88
2024-01-06T05:16:26.187Z,24.92
2024-01-06T05:18:59.181Z,20.15
2024-01-06T05:21:32.457Z,23.67
2024-01-06T05:24:07.773Z,25.08
2024-01-06T05:26:42.171Z,20.27
2024-01-06T05:29:15.083Z,21.55
2024-01-06T05:31:50.102Z,21.15
2024-01-06T05:34:23.134Z,22.90
2024-01-06T05:36:56.173Z,18.90
2024-01-06T05:39:29.169Z,19.70
2024-01-06T05:42:03.389Z,19.87
2024-01-06T05:44:38.183Z,19.60
2024-01-06T05:47:11.140Z,21.92
2024-01-06T05:49:44.639Z,22.42
2024-01-06T05:52:17.592Z,19.83
2024-01-06T05:54:50.557Z,20.25
2024-01-06T05:57:24.836Z,23.33
2024-01-06T05:59:57.850Z,19.88
2024-01-06T06:02:31.397Z,19.17
2024-01-06T06:05:04.348Z,16.20
2024-01-06T06:07:40.024Z,17.88
2024-01-06T06:10:13.756Z,17.48
2024-01-06T06:12:48.405Z,18.63
2024-01-06T06:15:21.413Z,20.75
2024-01-06T06:17:54.350Z,22.48
2024-01-06T06:20:26.271Z,19.67
2024-01-06T06:22:59.187Z,18.88
2024-01-06T06:25:32.073Z,20.50
2024-01-06T06:28:07.534Z,22.95
2024-01-06T06:30:40.651Z,17.35
2024-01-06T06:33:13.749Z,16.90
2024-01-06T06:35:46.700Z,19.52
2024-01-06T06:38:19.570Z,18.05
2024-01-06T06:40:52.461Z,21.63
2024-01-06T06:43:26.681Z,19.50
2024-01-06T06:45:59.659Z,21.50
2024-01-06T06:48:32.713Z,19.37
2024-01-06T06:51:05.996Z,14.73
2024-01-06T06:53:38.840Z,20.25
2024-01-06T06:56:11.841Z,20.80
2024-01-06T06:58:46.100Z,18.53
2024-01-06T07:01:19.121Z,21.02
2024-01-06T07:03:52.189Z,19.70
2024-01-06T07:06:25.122Z,18.77
2024-01-06T07:08:58.085Z,20.85
2024-01-06T07:11:30.980Z,16.33
2024-01-06T07:14:05.398Z,18.13
2024-01-06T07:16:38.278Z,21.00
2024-01-06T07:19:12.107Z,17.50
2024-01-06T07:24:18.100Z,18.88
2024-01-06T07:26:51.073Z,21.63
2024-01-06T07:29:25.269Z,23.80
2024-01-06T07:31:58.264Z,20.48
2024-01-06T07:34:31.561Z,22.20
2024-01-06T07:37:04.964Z,22.92
2024-01-06T07:39:37.892Z,27.83
2024-01-06T07:42:10.865Z,25.55
2024-01-06T07:44:45.596Z,26.08
2024-01-06T07:47:18.485Z,27.23
2024-01-06T07:49:51.365Z,21.02
2024-01-06T07:52:24.253Z,22.55
2024-01-06T07:54:57.168Z,21.40
2024-01-06T07:57:30.317Z,20.73
2024-01-06T08:00:06.395Z,21.15
2024-01-06T08:02:45.185Z,18.52
2024-01-06T08:05:18.711Z,20.98
2024-01-06T08:07:53.102Z,19.80
2024-01-06T08:10:25.955Z,21.38
2024-01-06T08:12:58.893Z,19.10
2024-01-06T08:15:33.640Z,20.45
2024-01-06T08:18:07.291Z,22.08
2024-01-06T08:20:40.251Z,23.75
2024-01-06T08:23:13.133Z,22.88
2024-01-06T08:25:46.996Z,22.60
2024-01-06T08:28:20.252Z,21.98
2024-01-06T08:30:54.775Z,25.55
2024-01-06T08:33:27.875Z,26.48
2024-01-06T08:36:01.047Z,19.17
2024-01-06T08:38:33.975Z,22.98
2024-01-06T08:41:06.917Z,21.17
2024-01-06T08:43:39.818Z,21.00
2024-01-06T08:46:14.182Z,25.10
2024-01-06T08:48:47.167Z,19.67
2024-01-06T08:51:21.676Z,24.73
2024-01-06T08:53:54.692Z,22.85
2024-01-06T08:56:29.001Z,24.98
2024-01-06T08:59:01.993Z,23.45
2024-01-06T09:01:37.303Z,22.97
2024-01-06T09:04:12.533Z,21.75
2024-01-06T09:06:46.230Z,23.90
2024-01-06T09:09:19.219Z,24.42
2024-01-06T09:11:52.232Z,23.17
2024-01-06T09:14:25.275Z,23.27
2024-01-06T09:16:59.559Z,23.50
2024-01-06T09:19:32.729Z,25.27
2024-01-06T09:22:06.132Z,22.25
2024-01-06T09:24:39.075Z,24.30
2024-01-06T09:27:12.194Z,20.73
2024-01-06T09:29:45.167Z,22.92
2024-01-06T09:32:19.439Z,22.10
2024-01-06T09:34:52.582Z,22.20
2024-01-06T09:37:25.575Z,26.90
2024-01-06T09:39:58.473Z,25.05
2024-01-06T09:42:31.694Z,22.88
2024-01-06T09:45:05.105Z,26.42
2024-01-06T09:47:43.193Z,22.50
2024-01-06T09:50:20.346Z,23.45
2024-01-06T09:52:57.349Z,27.35
2024-01-06T09:55:30.913Z,28.13
2024-01-06T09:58:05.869Z,25.25
2024-01-06T10:00:40.550Z,28.27
2024-01-06T10:03:14.954Z,25.23
2024-01-06T10:05:49.479Z,27.35
2024-01-06T10:08:22.415Z,27.85
2024-01-06T10:10:55.285Z,26.75
2024-01-06T10:13:29.211Z,28.25
2024-01-06T10:16:02.445Z,28.05
2024-01-06T10:18:37.094Z,24.98
2024-01-06T10:21:10.221Z,24.42
2024-01-06T10:23:43.997Z,24.98
2024-01-06T10:26:16.947Z,29.73
2024-01-06T10:28:51.110Z,30.70
2024-01-06T10:31:24.116Z,27.85
2024-01-06T10:33:58.693Z,24.23
2024-01-06T10:36:32.477Z,27.98
2024-01-06T10:39:05.542Z,31.92
2024-01-06T10:41:43.664Z,24.20
2024-01-06T10:44:17.198Z,26.70
2024-01-06T10:46:51.858Z,28.35
2024-01-06T10:49:27.281Z,28.67
2024-01-06T10:52:01.689Z,30.50
2024-01-06T10:54:37.881Z,31.63
2024-01-06T10:57:11.338Z,30.05
2024-01-06T10:59:44.856Z,34.53
2024-01-06T11:02:18.419Z,30.40
2024-01-06T11:04:52.859Z,28.08
2024-01-06T11:07:27.389Z,33.00
2024-01-06T11:10:04.686Z,33.17
2024-01-06T11:12:37.629Z,31.83
2024-01-06T11:15:10.859Z,31.30
2024-01-06T11:17:55.098Z,29.15
2024-01-06T11:20:29.711Z,28.15
2024-01-06T11:23:21.724Z,31.60
2024-01-06T11:25:55.630Z,30.52
2024-01-06T11:28:28.465Z,46.65
2024-01-06T11:31:10.294Z,25.13
2024-01-06T11:33:44.276Z,26.30
2024-01-06T11:38:52.202Z,23.30
2024-01-06T11:41:50.551Z,22.08
2024-01-06T11:44:23.481Z,27.08
2024-01-06T11:46:58.863Z,33.92
2024-01-06T11:49:32.024Z,24.15
2024-01-06T11:52:07.205Z,24.33
2024-01-06T11:54:40.536Z,25.27
2024-01-06T11:57:13.495Z,24.85
2024-01-06T11:59:46.488Z,28.45
2024-01-06T12:02:20.775Z,27.20
2024-01-06T12:04:55.213Z,23.70
2024-01-06T12:07:30.244Z,26.55
2024-01-06T12:10:05.795Z,23.38
2024-01-06T12:12:39.664Z,24.88
2024-01-06T12:15:13.163Z,28.95
2024-01-06T12:17:47.342Z,24.52
2024-01-06T12:20:20.484Z,25.00
2024-01-06T12:22:55.589Z,23.63
2024-01-06T12:25:30.291Z,38.72
2024-01-06T12:28:03.721Z,30.27
2024-01-06T12:30:37.051Z,31.13
2024-01-06T12:33:10.390Z,24.00
2024-01-06T12:35:43.464Z,26.38
2024-01-06T12:38:17.904Z,28.30
2024-01-06T12:40:51.649Z,22.85
2024-01-06T12:43:24.490Z,22.92
2024-01-06T12:45:59.172Z,24.40
2024-01-06T12:48:32.202Z,28.02
2024-01-06T12:51:06.528Z,27.10
2024-01-06T12:53:40.794Z,29.05
2024-01-06T12:56:15.486Z,25.95
2024-01-06T12:58:48.441Z,26.17
2024-01-06T13:01:21.465Z,20.42
2024-01-06T13:03:55.223Z,21.73
2024-01-06T13:06:28.247Z,21.13
2024-01-06T13:09:03.550Z,18.43
2024-01-06T13:11:37.750Z,26.65
2024-01-06T13:14:10.801Z,23.00
2024-01-06T13:16:46.203Z,25.37
2024-01-06T13:19:19.231Z,23.73
2024-01-06T13:21:52.426Z,26.57
2024-01-06T13:24:26.896Z,20.67
2024-01-06T13:27:04.054Z,24.15
2024-01-06T13:29:36.983Z,32.15
2024-01-06T13:32:12.454Z,21.90
2024-01-06T13:34:46.058Z,25.60
2024-01-06T13:37:19.345Z,22.88
2024-01-06T13:39:54.261Z,21.40
2024-01-06T13:42:27.350Z,24.50
2024-01-06T13:45:01.743Z,26.10
2024-01-06T13:47:34.989Z,25.55
2024-01-06T13:50:09.009Z,25.25
2024-01-06T13:55:16.795Z,20.33
2024-01-06T13:57:50.022Z,25.85
2024-01-06T14:00:23.471Z,24.33
2024-01-06T14:02:57.555Z,20.77
2024-01-06T14:05:30.696Z,20.63
2024-01-06T14:08:05.988Z,22.77
2024-01-06T14:10:40.593Z,21.60
2024-01-06T14:13:13.784Z,21.13
2024-01-06T14:15:49.640Z,20.30
2024-01-06T14:18:24.304Z,22.63
2024-01-06T14:20:57.443Z,18.25
2024-01-06T14:23:33.700Z,23.50
2024-01-06T14:26:08.581Z,20.30
2024-01-06T14:28:41.885Z,18.45
2024-01-06T14:31:15.029Z,18.67
2024-01-06T14:33:48.584Z,19.00
2024-01-06T14:36:21.584Z,36.03
2024-01-06T14:38:54.740Z,22.27
2024-01-06T14:41:29.130Z,19.38
2024-01-06T14:44:04.346Z,16.95
2024-01-06T14:46:39.462Z,20.02
2024-01-06T14:49:12.722Z,22.50
2024-01-06T14:51:46.851Z,23.48
2024-01-06T14:54:19.809Z,20.98
2024-01-06T14:56:54.953Z,22.83
2024-01-06T14:59:30.080Z,18.55
2024-01-06T15:02:03.095Z,21.88
2024-01-06T15:04:38.274Z,21.40
2024-01-06T15:07:11.312Z,20.02
2024-01-06T15:09:45.147Z,20.87
2024-01-06T15:12:19.410Z,17.73
2024-01-06T15:14:52.527Z,21.45
2024-01-06T15:17:25.511Z,22.85
2024-01-06T15:19:58.482Z,19.90
2024-01-06T15:22:31.365Z,21.07
2024-01-06T15:25:06.873Z,20.95
2024-01-06T15:27:41.541Z,19.40
2024-01-06T15:30:15.376Z,18.88
2024-01-06T15:32:49.959Z,19.23
2024-01-06T15:35:24.404Z,21.13
2024-01-06T15:37:57.498Z,20.90
2024-01-06T15:40:30.522Z,19.95
2024-01-06T15:43:05.115Z,23.87
2024-01-06T15:45:38.059Z,20.73
2024-01-06T15:48:11.097Z,22.05
2024-01-06T15:50:44.052Z,25.17
2024-01-06T15:53:18.496Z,22.40
2024-01-06T15:55:51.597Z,25.15
2024-01-06T15:58:25.900Z,25.15
2024-01-06T16:00:58.890Z,24.25
2024-01-06T16:03:32.255Z,23.97
2024-01-06T16:06:05.805Z,24.88
2024-01-06T16:08:38.770Z,20.75
2024-01-06T16:11:13.084Z,20.55
2024-01-06T16:13:47.285Z,21.83
2024-01-06T16:16:21.377Z,22.23
2024-01-06T16:18:54.379Z,23.63
2024-01-06T16:21:28.059Z,24.38
2024-01-06T16:24:01.266Z,20.25
2024-01-06T16:26:34.141Z,18.17
2024-01-06T16:29:08.343Z,18.95
2024-01-06T16:31:41.329Z,25.88
2024-01-06T16:34:14.477Z,17.13
2024-01-06T16:36:48.609Z,18.53
2024-01-06T16:39:21.561Z,16.92
2024-01-06T16:41:54.554Z,19.08
2024-01-06T16:44:31.815Z,18.88
2024-01-06T16:47:07.015Z,21.50
2024-01-06T16:49:39.954Z,17.38
2024-01-06T16:52:13.120Z,19.50
2024-01-06T16:54:46.125Z,19.52
2024-01-06T16:57:20.906Z,19.30
2024-01-06T16:59:55.958Z,21.92
2024-01-06T17:02:34.476Z,21.73
2024-01-06T17:05:09.849Z,18.45
2024-01-06T17:07:47.858Z,18.50
2024-01-06T17:10:21.084Z,19.30
2024-01-06T17:12:55.486Z,22.35
2024-01-06T17:15:29.896Z,19.25
2024-01-06T17:18:06.650Z,21.35
2024-01-06T17:20:40.807Z,17.80
2024-01-06T17:23:13.761Z,17.83
2024-01-06T17:25:46.749Z,21.85
2024-01-06T17:28:19.650Z,15.88
2024-01-06T17:30:53.995Z,20.00
2024-01-06T17:33:27.028Z,32.20
2024-01-06T17:36:00.183Z,12.30
2024-01-06T17:38:33.367Z,13.60
2024-01-06T17:41:06.964Z,13.35
2024-01-06T17:43:39.906Z,14.73
2024-01-06T17:46:14.326Z,10.10
2024-01-06T17:48:47.827Z,12.13
2024-01-06T17:51:24.413Z,12.60
2024-01-06T17:53:58.703Z,13.18
2024-01-06T17:56:31.625Z,15.60
2024-01-06T17:59:04.507Z,10.20
2024-01-06T18:01:38.812Z,11.48
2024-01-06T18:04:11.824Z,9.27
2024-01-06T18:06:47.103Z,12.20
2024-01-06T18:09:20.658Z,13.27
2024-01-06T18:11:53.663Z,11.07
2024-01-06T18:14:26.564Z,11.05
2024-01-06T18:17:03.567Z,12.57
2024-01-06T18:19:36.472Z,10.93
2024-01-06T18:22:10.099Z,8.40
2024-01-06T18:24:43.086Z,12.60
2024-01-06T18:27:17.004Z,12.27
2024-01-06T18:29:50.636Z,8.95
2024-01-06T18:32:24.998Z,9.70
2024-01-06T18:34:57.923Z,12.00
2024-01-06T18:37:30.890Z,9.77
2024-01-06T18:40:05.365Z,8.75
2024-01-06T18:42:38.456Z,15.57
2024-01-06T18:45:16.255Z,9.35
2024-01-06T18:47:50.628Z,13.18
2024-01-06T18:50:24.142Z,9.77
2024-01-06T18:52:58.991Z,12.32
2024-01-06T18:55:43.621Z,12.02
2024-01-06T18:58:16.532Z,13.57
2024-01-06T19:00:49.809Z,17.00
2024-01-06T19:03:24.503Z,11.43
2024-01-06T19:05:58.042Z,12.13
2024-01-06T19:08:31.019Z,11.75
2024-01-06T19:11:04.253Z,12.93
2024-01-06T19:13:37.732Z,13.77
2024-01-06T19:16:11.767Z,13.32
2024-01-06T19:18:49.598Z,11.80
2024-01-06T19:21:23.831Z,11.05
2024-01-06T19:23:57.013Z,13.05
2024-01-06T19:26:30.500Z,17.48
2024-01-06T19:29:03.535Z,14.43
2024-01-06T19:31:37.050Z,11.10
2024-01-06T19:34:13.347Z,9.55
2024-01-06T19:36:46.575Z,11.80
2024-01-06T19:39:19.545Z,10.00
2024-01-06T19:41:52.463Z,10.70
2024-01-06T19:44:28.578Z,11.75
2024-01-06T19:47:02.213Z,12.25
2024-01-06T19:49:36.702Z,10.40
2024-01-06T19:52:09.789Z,14.52
2024-01-06T19:54:42.925Z,12.68
2024-01-06T19:57:17.608Z,13.73
2024-01-06T19:59:52.542Z,12.00
2024-01-06T20:02:25.552Z,10.73
2024-01-06T20:05:06.498Z,10.13
2024-01-06T20:07:40.860Z,10.80
2024-01-06T20:10:14.129Z,8.85
2024-01-06T20:12:48.013Z,8.88
2024-01-06T20:15:21.043Z,8.73
2024-01-06T20:17:54.564Z,11.32
2024-01-06T20:20:28.990Z,11.77
2024-01-06T20:23:04.662Z,12.93
2024-01-06T20:25:39.519Z,12.73
2024-01-06T20:28:18.640Z,11.20
2024-01-06T20:33:27.153Z,10.65
2024-01-06T20:36:01.909Z,8.90
2024-01-06T20:38:35.348Z,11.73
2024-01-06T20:41:08.941Z,15.05
2024-01-06T20:43:41.923Z,11.40
2024-01-06T20:48:51.624Z,11.02
2024-01-06T20:51:25.929Z,11.48
2024-01-06T20:53:58.895Z,12.07
2024-01-06T20:56:31.769Z,12.48
2024-01-06T20:59:07.417Z,14.30
2024-01-06T21:01:40.533Z,13.45
2024-01-06T21:04:13.506Z,19.80
2024-01-06T21:06:47.913Z,26.50
2024-01-06T21:09:22.360Z,24.65
2024-01-06T21:11:58.323Z,16.23
2024-01-06T21:14:31.349Z,17.98
2024-01-06T21:17:04.396Z,15.47
2024-01-06T21:19:37.322Z,17.20
2024-01-06T21:22:11.690Z,30.37
2024-01-06T21:24:47.462Z,21.35
2024-01-06T21:27:20.456Z,22.02
2024-01-06T21:29:53.361Z,16.30
2024-01-06T21:32:26.354Z,15.75
2024-01-06T21:35:00.488Z,16.47
2024-01-06T21:37:35.272Z,19.88
2024-01-06T21:40:09.924Z,17.20
2024-01-06T21:42:43.173Z,20.48
2024-01-06T21:45:16.086Z,19.75
2024-01-06T21:47:49.416Z,18.55
2024-01-06T21:50:25.347Z,20.55
2024-01-06T21:52:59.710Z,22.10
2024-01-06T21:55:32.699Z,18.50
2024-01-06T21:58:06.021Z,17.53
2024-01-06T22:00:39.604Z,22.20
2024-01-06T22:03:13.174Z,24.63
2024-01-06T22:05:46.228Z,19.10
2024-01-06T22:08:20.798Z,18.20
2024-01-06T22:10:53.925Z,17.15
2024-01-06T22:13:26.873Z,22.60
2024-01-06T22:15:59.850Z,19.90
2024-01-06T22:18:32.947Z,15.77
2024-01-06T22:21:06.331Z,19.23
2024-01-06T22:23:40.663Z,19.88
2024-01-06T22:26:13.630Z,18.52
2024-01-06T22:28:46.737Z,19.20
2024-01-06T22:31:19.802Z,14.88
2024-01-06T22:33:53.859Z,19.38
2024-01-06T22:36:26.945Z,17.48
2024-01-06T22:39:01.523Z,18.30
2024-01-06T22:41:34.374Z,17.90
2024-01-06T22:44:09.607Z,18.88
2024-01-06T22:46:42.467Z,17.38
2024-01-06T22:49:15.452Z,18.42
2024-01-06T22:51:48.427Z,16.57
2024-01-06T22:54:22.687Z,16.50
2024-01-06T22:56:56.625Z,16.00
2024-01-06T22:59:29.483Z,16.15
2024-01-06T23:02:02.361Z,19.83
2024-01-06T23:04:35.347Z,19.13
2024-01-06T23:07:08.367Z,15.00
2024-01-06T23:09:42.728Z,15.82
2024-01-06T23:12:15.712Z,16.33
2024-01-06T23:14:48.690Z,18.52
2024-01-06T23:17:21.719Z,17.47
2024-01-06T23:19:54.883Z,18.00
2024-01-06T23:22:27.877Z,17.15
2024-01-06T23:25:02.178Z,15.75
2024-01-06T23:27:35.247Z,14.43
2024-01-06T23:30:09.601Z,16.77
2024-01-06T23:32:42.576Z,16.63
2024-01-06T23:35:15.665Z,16.80
2024-01-06T23:37:51.766Z,15.90
2024-01-06T23:40:26.134Z,15.88
2024-01-06T23:42:59.253Z,17.40
2024-01-06T23:45:32.288Z,16.90
2024-01-06T23:48:05.418Z,16.20
2024-01-06T23:50:38.300Z,16.00
2024-01-06T23:53:12.193Z,15.60
2024-01-06T23:58:19.213Z,15.80
